Map

Track Data

SID SEASON NUMBER BASIN SUBBASIN NAME ISO_TIME NATURE LAT LON WMO_WIND WMO_PRES WMO_AGENCY TRACK_TYPE DIST2LAND LANDFALL IFLAG USA_AGENCY USA_ATCF_ID USA_LAT USA_LON USA_RECORD USA_STATUS USA_WIND USA_PRES USA_SSHS USA_R34_NE USA_R34_SE USA_R34_SW USA_R34_NW USA_R50_NE USA_R50_SE USA_R50_SW USA_R50_NW USA_R64_NE USA_R64_SE USA_R64_SW USA_R64_NW USA_POCI USA_ROCI USA_RMW USA_EYE TOKYO_LAT TOKYO_LON TOKYO_GRADE TOKYO_WIND TOKYO_PRES TOKYO_R50_DIR TOKYO_R50_LONG TOKYO_R50_SHORT TOKYO_R30_DIR TOKYO_R30_LONG TOKYO_R30_SHORT TOKYO_LAND CMA_LAT CMA_LON CMA_CAT CMA_WIND CMA_PRES HKO_LAT HKO_LON HKO_CAT HKO_WIND HKO_PRES NEWDELHI_LAT NEWDELHI_LON NEWDELHI_GRADE NEWDELHI_WIND NEWDELHI_PRES NEWDELHI_CI NEWDELHI_DP NEWDELHI_POCI REUNION_LAT REUNION_LON REUNION_TYPE REUNION_WIND REUNION_PRES REUNION_TNUM REUNION_CI REUNION_RMW REUNION_R34_NE REUNION_R34_SE REUNION_R34_SW REUNION_R34_NW REUNION_R50_NE REUNION_R50_SE REUNION_R50_SW REUNION_R50_NW REUNION_R64_NE REUNION_R64_SE REUNION_R64_SW REUNION_R64_NW BOM_LAT BOM_LON BOM_TYPE BOM_WIND BOM_PRES BOM_TNUM BOM_CI BOM_RMW BOM_R34_NE BOM_R34_SE BOM_R34_SW BOM_R34_NW BOM_R50_NE BOM_R50_SE BOM_R50_SW BOM_R50_NW BOM_R64_NE BOM_R64_SE BOM_R64_SW BOM_R64_NW BOM_ROCI BOM_POCI BOM_EYE BOM_POS_METHOD BOM_PRES_METHOD NADI_LAT NADI_LON NADI_CAT NADI_WIND NADI_PRES WELLINGTON_LAT WELLINGTON_LON WELLINGTON_WIND WELLINGTON_PRES DS824_LAT DS824_LON DS824_STAGE DS824_WIND DS824_PRES TD9636_LAT TD9636_LON TD9636_STAGE TD9636_WIND TD9636_PRES TD9635_LAT TD9635_LON TD9635_WIND TD9635_PRES TD9635_ROCI NEUMANN_LAT NEUMANN_LON NEUMANN_CLASS NEUMANN_WIND NEUMANN_PRES MLC_LAT MLC_LON MLC_CLASS MLC_WIND MLC_PRES USA_GUST BOM_GUST BOM_GUST_PER REUNION_GUST REUNION_GUST_PER USA_SEAHGT USA_SEARAD_NE USA_SEARAD_SE USA_SEARAD_SW USA_SEARAD_NW STORM_SPEED STORM_DIR
1930179N19089 1930 28 NI BB NOT_NAMED 1930-06-28 00:00:00 TS 18.8000 88.5000 main 252 252 _________O____ -1 18.8000 88.5000 TC 30 0 0
1930179N19089 1930 28 NI BB NOT_NAMED 1930-06-28 03:00:00 TS 18.8000 88.5000 main 252 252 _________PO___ -1 18.8000 88.5000 TC 30 18.8000 88.5000 1 0 0
1930179N19089 1930 28 NI BB NOT_NAMED 1930-06-28 06:00:00 TS 18.8006 88.4956 main 252 252 _________OP___ -1 18.8000 88.5000 TC 30 18.8016 88.4891 1 0 0
1930179N19089 1930 28 NI BB NOT_NAMED 1930-06-28 09:00:00 TS 18.8011 88.4925 main 252 252 _________PP___ -1 18.8000 88.5000 TC 30 18.8025 88.4825 1 0 0
1930179N19089 1930 28 NI BB NOT_NAMED 1930-06-28 12:00:00 TS 18.8011 88.4923 main 252 252 _________OP___ -1 18.8000 88.5000 TC 30 18.8022 88.4847 1 0 0
1930179N19089 1930 28 NI BB NOT_NAMED 1930-06-28 15:00:00 TS 18.8000 88.5000 main 252 252 _________PO___ -1 18.8000 88.5000 TC 30 18.8000 88.5000 1 0 0
1930179N19089 1930 28 NI BB NOT_NAMED 1930-06-28 18:00:00 TS 18.7979 88.5142 main 252 252 _________OP___ -1 18.8000 88.5000 TC 30 18.7959 88.5284 1 0 96
1930179N19089 1930 28 NI BB NOT_NAMED 1930-06-28 21:00:00 TS 18.7962 88.5375 main 252 252 _________PP___ -1 18.8000 88.5225 TC 30 18.7924 88.5525 1 0 0
1930179N19089 1930 28 NI BB NOT_NAMED 1930-06-29 00:00:00 TS 18.7964 88.5251 main 252 244 _________OP___ -1 18.8000 88.5000 TC 30 18.7927 88.5503 1 1 270
1930179N19089 1930 28 NI BB NOT_NAMED 1930-06-29 03:00:00 TS 18.7962 88.4400 main 244 237 _________PO___ -1 18.7925 88.3800 TC 30 18.8000 88.5000 1 2 273
1930179N19089 1930 28 NI BB NOT_NAMED 1930-06-29 06:00:00 TS 18.8069 88.2836 main 237 222 _________OP___ -1 18.8000 88.2000 TC 30 18.8139 88.3672 1 3 277
1930179N19089 1930 28 NI BB NOT_NAMED 1930-06-29 09:00:00 TS 18.8389 88.0938 main 222 199 _________PP___ -1 18.8425 88.0000 TC 30 18.8352 88.1875 1 4 281
1930179N19089 1930 28 NI BB NOT_NAMED 1930-06-29 12:00:00 TS 18.8819 87.8945 main 199 183 _________OP___ -1 18.9000 87.8000 TC 30 18.8639 87.9891 1 4 284
1930179N19089 1930 28 NI BB NOT_NAMED 1930-06-29 15:00:00 TS 18.9250 87.7175 main 183 168 _________PO___ -1 18.9500 87.6350 TC 33 18.9000 87.8000 1 3 286
1930179N19089 1930 28 NI BB NOT_NAMED 1930-06-29 18:00:00 TS 18.9693 87.5783 main 168 160 _________OP___ -1 19.0000 87.5000 TC 37 18.9387 87.6565 1 3 291
1930179N19089 1930 28 NI BB NOT_NAMED 1930-06-29 21:00:00 TS 19.0175 87.4600 main 160 145 _________PP___ -1 19.0500 87.3925 TC 41 18.9849 87.5275 1 2 295
1930179N19089 1930 28 NI BB NOT_NAMED 1930-06-30 00:00:00 TS 19.0694 87.3548 main 145 137 _________OP___ -1 19.1000 87.3000 TC 45 19.0387 87.4097 1 2 298
1930179N19089 1930 28 NI BB NOT_NAMED 1930-06-30 03:00:00 TS 19.1212 87.2500 main 137 122 _________PO___ -1 19.1425 87.2000 TC 45 19.1000 87.3000 3 2 300
1930179N19089 1930 28 NI BB NOT_NAMED 1930-06-30 06:00:00 TS 19.1839 87.1444 main 115 100 _________OP___ -1 19.2000 87.1000 TC 45 19.1678 87.1888 3 2 307
1930179N19089 1930 28 NI BB NOT_NAMED 1930-06-30 09:00:00 TS 19.2712 87.0425 main 100 85 _________PP___ -1 19.3000 87.0000 TC 45 19.2425 87.0850 3 3 313
1930179N19089 1930 28 NI BB NOT_NAMED 1930-06-30 12:00:00 TS 19.3605 86.9444 main 85 85 _________OP___ -1 19.4000 86.9000 TC 45 19.3209 86.9887 3 2 310
1930179N19089 1930 28 NI BB NOT_NAMED 1930-06-30 15:00:00 TS 19.4250 86.8462 main 79 69 _________PO___ -1 19.4500 86.7925 TC 45 19.4000 86.9000 3 2 303
1930179N19089 1930 28 NI BB NOT_NAMED 1930-06-30 18:00:00 TS 19.4712 86.7649 main 69 64 _________OP___ -1 19.5000 86.7000 TC 45 19.4424 86.8298 3 2 310
1930179N19089 1930 28 NI BB NOT_NAMED 1930-06-30 21:00:00 TS 19.5299 86.7110 main 64 54 _________PP___ -1 19.5700 86.6574 TC 45 19.4899 86.7646 3 2 325
1930179N19089 1930 28 NI BB NOT_NAMED 1930-07-01 00:00:00 TS 19.6337 86.6461 main 49 24 _________OP___ -1 19.7000 86.6000 TC 45 19.5674 86.6922 3 3 329
1930179N19089 1930 28 NI BB NOT_NAMED 1930-07-01 03:00:00 TS 19.8100 86.5325 main 24 0 _________PO___ -1 19.9200 86.4650 TC 41 19.7000 86.6000 3 5 332
1930179N19089 1930 28 NI BB NOT_NAMED 1930-07-01 06:00:00 TS 20.0729 86.3960 main 0 0 _________OP___ -1 20.2000 86.3000 TC 37 19.9458 86.4921 3 6 336
1930179N19089 1930 28 NI BB NOT_NAMED 1930-07-01 09:00:00 TS 20.3786 86.2626 main 0 0 _________PP___ -1 20.5149 86.1650 TC 33 20.2423 86.3603 3 7 335
1930179N19089 1930 28 NI BB NOT_NAMED 1930-07-01 12:00:00 TS 20.6713 86.0992 main 0 0 _________OP___ -1 20.8000 86.0000 TC 30 20.5426 86.1983 3 6 326
1930179N19089 1930 28 NI BB NOT_NAMED 1930-07-01 15:00:00 TS 20.8937 85.8862 main 0 0 _________PO___ -1 20.9875 85.7725 TC 30 20.8000 86.0000 1 5 311
1930179N19089 1930 28 NI BB NOT_NAMED 1930-07-01 18:00:00 TS 21.0248 85.6566 main 0 0 _________OP___ -1 21.1000 85.5000 TC 30 20.9496 85.8132 1 5 296
1930179N19089 1930 28 NI BB NOT_NAMED 1930-07-01 21:00:00 TS 21.1042 85.4182 main 0 0 _________PP___ -1 21.1572 85.2523 TC 30 21.0513 85.5842 1 5 285
1930179N19089 1930 28 NI BB NOT_NAMED 1930-07-02 00:00:00 TS 21.1637 85.0941 main 0 0 _________OP___ -1 21.2000 84.9000 TC 30 21.1274 85.2881 1 8 281
1930179N19089 1930 28 NI BB NOT_NAMED 1930-07-02 03:00:00 TS 21.2463 84.6225 main 0 0 _________PO___ -1 21.2927 84.3451 TC 30 21.2000 84.9000 1 10 280
1930179N19089 1930 28 NI BB NOT_NAMED 1930-07-02 06:00:00 TS 21.3445 84.0345 main 0 0 _________OP___ -1 21.4000 83.7000 TC 30 21.2890 84.3689 1 11 280
1930179N19089 1930 28 NI BB NOT_NAMED 1930-07-02 09:00:00 TS 21.4359 83.4148 main 0 0 _________PP___ -1 21.4925 83.0774 TC 30 21.3792 83.7522 1 12 280
1930179N19089 1930 28 NI BB NOT_NAMED 1930-07-02 12:00:00 TS 21.5398 82.8047 main 0 0 _________OP___ -1 21.6000 82.5000 TC 30 21.4796 83.1094 1 11 282
1930179N19089 1930 28 NI BB NOT_NAMED 1930-07-02 15:00:00 TS 21.6673 82.2637 main 0 0 _________PO___ -1 21.7347 82.0274 TC 30 21.6000 82.5000 1 10 286
1930179N19089 1930 28 NI BB NOT_NAMED 1930-07-02 18:00:00 TS 21.8132 81.8112 main 0 0 _________OP___ -1 21.9000 81.6000 TC 30 21.7480 81.9696 1 9 291
1930179N19089 1930 28 NI BB NOT_NAMED 1930-07-02 21:00:00 TS 21.9887 81.3682 main 0 0 _________PP___ -1 22.0929 81.1578 TC 30 21.9192 81.5085 1 9 294
1930179N19089 1930 28 NI BB NOT_NAMED 1930-07-03 00:00:00 TS 22.1706 80.9620 main 0 0 _________OP___ -1 22.3000 80.7000 TC 30 22.1059 81.0931 1 7 297
1930179N19089 1930 28 NI BB NOT_NAMED 1930-07-03 03:00:00 NR 22.3000 80.7000 main 0 __________O___ -1 TC 22.3000 80.7000 1 6 298

About IBTrACS Database

This database is a web-friendly format of International Best Track Archive for Climate Stewardship (IBTrACS), a global best track data archive curated by NOAA dating back to 1842.

Updated: 2021-11-26